Time;durP1;ratioP1;P1;durP2;ratioP2;P2;SDS_P1;SDS_P2;PMS_P1;PMS_P2;Temp;Humidity;BMP_temperature;BMP_pressure;BME280_temperature;BME280_humidity;BME280_pressure;Samples;Min_cycle;Max_cycle;Signal;HPM_P1;HPM_P2
2022/02/01 00:00:56;;;;;;;;;;;1.90;99.90;;;;;;5021197;28;20375;-74
2022/02/01 00:03:25;;;;;;;;;;;1.80;99.90;;;;;;5021976;28;20106;-74
2022/02/01 00:06:07;;;;;;;;;;;1.80;99.90;;;;;;5023485;28;19932;-74
2022/02/01 00:11:50;;;;;;;;;;;1.80;99.90;;;;;;5020800;28;19924;-73
2022/02/01 00:14:34;;;;;;;;;;;1.90;99.90;;;;;;5042632;28;19995;-73
2022/02/01 00:20:08;;;;;;;;;;;2.10;99.90;;;;;;5045483;28;20290;-73
2022/02/01 00:38:59;;;;;;;;;;;2.20;99.90;;;;;;5040102;28;19971;-73
2022/02/01 00:41:30;;;;;;;;;;;2.20;99.90;;;;;;5034040;28;19931;-73
2022/02/01 00:43:57;;;;;;;;;;;2.00;99.90;;;;;;5040314;28;20023;-73
2022/02/01 00:46:24;;;;;;;;;;;2.00;99.90;;;;;;5037088;28;19921;-73
2022/02/01 00:48:51;;;;;;;;;;;2.00;99.90;;;;;;5042267;28;19925;-73
2022/02/01 00:51:18;;;;;;;;;;;2.00;99.90;;;;;;5029352;28;20125;-73
2022/02/01 00:53:44;;;;;;;;;;;2.00;99.90;;;;;;5024529;28;20360;-73
2022/02/01 00:56:13;;;;;;;;;;;2.00;99.90;;;;;;5023329;28;19925;-72
2022/02/01 00:58:40;;;;;;;;;;;2.00;99.90;;;;;;5024554;28;20524;-73
2022/02/01 01:01:08;;;;;;;;;;;2.00;99.90;;;;;;5024335;28;20048;-73
2022/02/01 01:03:35;;;;;;;;;;;2.00;99.90;;;;;;5023030;28;19925;-72
2022/02/01 01:06:02;;;;;;;;;;;2.00;99.90;;;;;;5028188;28;19922;-72
2022/02/01 01:08:29;;;;;;;;;;;2.10;99.90;;;;;;5055206;22;20312;-76
2022/02/01 01:10:55;;;;;;;;;;;2.10;99.90;;;;;;5019939;28;20240;-77
2022/02/01 01:43:45;;;;;;;;;;;2.40;99.90;;;;;;5021103;28;19956;-75
2022/02/01 01:54:22;;;;;;;;;;;2.40;99.90;;;;;;5057573;28;20421;-78
2022/02/01 01:56:53;;;;;;;;;;;2.40;99.90;;;;;;5041135;28;19924;-77
2022/02/01 01:59:21;;;;;;;;;;;2.40;99.90;;;;;;5059434;28;19921;-76
2022/02/01 02:01:48;;;;;;;;;;;2.40;99.90;;;;;;5038009;28;19981;-76
2022/02/01 02:04:16;;;;;;;;;;;2.40;99.90;;;;;;5058582;28;20325;-77
2022/02/01 02:06:43;;;;;;;;;;;2.40;99.90;;;;;;5059117;28;19921;-76
2022/02/01 02:09:11;;;;;;;;;;;2.40;99.90;;;;;;5043099;28;19924;-77
2022/02/01 02:11:49;;;;;;;;;;;2.30;99.90;;;;;;5035575;28;19932;-76
2022/02/01 02:14:24;;;;;;;;;;;2.30;99.90;;;;;;5035442;28;19931;-77
2022/02/01 02:16:58;;;;;;;;;;;2.30;99.90;;;;;;5035927;28;19947;-77
2022/02/01 02:19:26;;;;;;;;;;;2.40;99.90;;;;;;5018669;28;19921;-76
2022/02/01 02:21:53;;;;;;;;;;;2.40;99.90;;;;;;5030711;28;20024;-76
2022/02/01 02:24:20;;;;;;;;;;;2.40;99.90;;;;;;5057195;28;20357;-76
2022/02/01 02:26:51;;;;;;;;;;;2.30;99.90;;;;;;5054618;28;20548;-77
2022/02/01 02:29:18;;;;;;;;;;;2.20;99.90;;;;;;5030073;28;19935;-75
2022/02/01 02:31:45;;;;;;;;;;;2.30;99.90;;;;;;5035833;28;19925;-77
2022/02/01 02:34:14;;;;;;;;;;;2.20;99.90;;;;;;5018945;28;20041;-78
2022/02/01 02:36:52;;;;;;;;;;;2.20;99.90;;;;;;5018367;28;19920;-77
2022/02/01 02:47:05;;;;;;;;;;;2.00;99.90;;;;;;5032498;28;20240;-76
2022/02/01 02:49:32;;;;;;;;;;;2.00;99.90;;;;;;5039995;28;19975;-76
2022/02/01 02:51:59;;;;;;;;;;;1.90;99.90;;;;;;5047406;28;19925;-77
2022/02/01 02:54:27;;;;;;;;;;;1.90;99.90;;;;;;5034774;28;19920;-77
2022/02/01 02:56:57;;;;;;;;;;;1.80;99.90;;;;;;5017815;28;20018;-77
2022/02/01 02:59:24;;;;;;;;;;;1.70;99.90;;;;;;5036353;28;19924;-75
2022/02/01 03:01:51;;;;;;;;;;;1.70;99.90;;;;;;5034742;28;19967;-76
2022/02/01 03:04:28;;;;;;;;;;;1.60;99.90;;;;;;5014389;28;19925;-76
2022/02/01 03:06:56;;;;;;;;;;;1.50;99.90;;;;;;5038646;28;20007;-76
2022/02/01 03:09:23;;;;;;;;;;;1.40;99.90;;;;;;5021631;28;20541;-76
2022/02/01 03:11:51;;;;;;;;;;;1.40;99.90;;;;;;5033401;28;19982;-76
2022/02/01 03:14:25;;;;;;;;;;;1.40;99.90;;;;;;5017767;28;19932;-76
2022/02/01 03:17:11;;;;;;;;;;;1.40;99.90;;;;;;5015561;28;19925;-78
2022/02/01 03:19:50;;;;;;;;;;;1.30;99.90;;;;;;5035321;28;20392;-77
2022/02/01 03:22:18;;;;;;;;;;;1.30;99.90;;;;;;5049122;28;19971;-75
2022/02/01 03:24:46;;;;;;;;;;;1.30;99.90;;;;;;5053886;28;20092;-75
2022/02/01 03:27:13;;;;;;;;;;;1.30;99.90;;;;;;5036842;28;19981;-75
2022/02/01 03:29:40;;;;;;;;;;;1.30;99.90;;;;;;5035421;28;20575;-75
2022/02/01 03:32:08;;;;;;;;;;;1.30;99.90;;;;;;5028112;28;19924;-75
2022/02/01 03:34:35;;;;;;;;;;;1.30;99.90;;;;;;5016939;28;19921;-75
2022/02/01 03:37:02;;;;;;;;;;;1.30;99.90;;;;;;5034594;28;20317;-75
2022/02/01 03:39:29;;;;;;;;;;;1.30;99.90;;;;;;5016680;28;20410;-76
2022/02/01 03:41:56;;;;;;;;;;;1.30;99.90;;;;;;5034281;28;19978;-73
2022/02/01 03:44:23;;;;;;;;;;;1.40;99.90;;;;;;5016174;28;19929;-75
2022/02/01 03:47:27;;;;;;;;;;;1.30;99.90;;;;;;5014592;28;20112;-74
2022/02/01 03:49:45;;;;;;;;;;;1.30;99.90;;;;;;5029501;28;19959;-73
2022/02/01 03:52:12;;;;;;;;;;;1.30;99.90;;;;;;5045334;28;19921;-73
2022/02/01 03:54:40;;;;;;;;;;;1.30;99.90;;;;;;5034177;28;20780;-73
2022/02/01 03:57:08;;;;;;;;;;;1.30;99.90;;;;;;5034128;28;19931;-73
2022/02/01 04:07:22;;;;;;;;;;;1.30;99.90;;;;;;5035740;28;19917;-74
2022/02/01 04:09:50;;;;;;;;;;;1.30;99.90;;;;;;5014388;28;19920;-74
2022/02/01 04:12:18;;;;;;;;;;;1.30;99.90;;;;;;5011598;28;19925;-73
2022/02/01 04:19:05;;;;;;;;;;;1.30;99.90;;;;;;5033167;28;19912;-74
2022/02/01 04:21:32;;;;;;;;;;;1.40;99.90;;;;;;5032304;28;19927;-73
2022/02/01 04:23:59;;;;;;;;;;;1.30;99.90;;;;;;5033354;28;19925;-74
2022/02/01 04:26:30;;;;;;;;;;;1.40;99.90;;;;;;5032029;28;19920;-74
2022/02/01 04:28:56;;;;;;;;;;;1.30;99.90;;;;;;5015140;28;19933;-73
2022/02/01 04:31:23;;;;;;;;;;;1.30;99.90;;;;;;5031485;28;19944;-73
2022/02/01 04:33:50;;;;;;;;;;;1.40;99.90;;;;;;5032087;28;20132;-73
2022/02/01 04:36:17;;;;;;;;;;;1.30;99.90;;;;;;5029087;28;19931;-73
2022/02/01 04:38:51;;;;;;;;;;;1.40;99.90;;;;;;5031327;28;19935;-72
2022/02/01 04:41:18;;;;;;;;;;;1.40;99.90;;;;;;5032432;28;20234;-74
2022/02/01 04:43:45;;;;;;;;;;;1.40;99.90;;;;;;5022118;28;19932;-72
2022/02/01 04:46:14;;;;;;;;;;;1.40;99.90;;;;;;5021204;28;19924;-73
2022/02/01 04:48:40;;;;;;;;;;;1.50;99.90;;;;;;5030940;28;20044;-72
2022/02/01 04:51:07;;;;;;;;;;;1.50;99.90;;;;;;5032997;28;20448;-74
2022/02/01 04:53:34;;;;;;;;;;;1.50;99.90;;;;;;5031702;28;19929;-74
2022/02/01 04:56:01;;;;;;;;;;;1.50;99.90;;;;;;5030754;28;19928;-75
2022/02/01 04:58:28;;;;;;;;;;;1.50;99.90;;;;;;5012980;28;20344;-72
2022/02/01 05:00:54;;;;;;;;;;;1.50;99.90;;;;;;5033354;28;19931;-76
2022/02/01 05:03:21;;;;;;;;;;;1.40;99.90;;;;;;5044113;28;19932;-72
2022/02/01 05:05:49;;;;;;;;;;;1.50;99.90;;;;;;5055995;28;19927;-72
2022/02/01 05:08:15;;;;;;;;;;;1.50;99.90;;;;;;5035654;28;19982;-72
2022/02/01 05:10:42;;;;;;;;;;;1.50;99.90;;;;;;5034844;28;19932;-74
2022/02/01 05:15:39;;;;;;;;;;;1.60;99.90;;;;;;5048024;28;19936;-75
2022/02/01 05:18:13;;;;;;;;;;;1.60;99.90;;;;;;5034121;28;19920;-74
2022/02/01 05:23:23;;;;;;;;;;;1.60;99.90;;;;;;5017148;28;20127;-73
2022/02/01 05:25:50;;;;;;;;;;;1.60;99.90;;;;;;5035662;28;19921;-74
2022/02/01 05:28:17;;;;;;;;;;;1.60;99.90;;;;;;5034835;28;20369;-74
2022/02/01 05:30:44;;;;;;;;;;;1.60;99.90;;;;;;5037030;28;20406;-74
2022/02/01 05:33:11;;;;;;;;;;;1.60;99.90;;;;;;5043111;28;19920;-74
2022/02/01 05:35:38;;;;;;;;;;;1.60;99.90;;;;;;5052885;28;20367;-74
2022/02/01 05:38:05;;;;;;;;;;;1.60;99.90;;;;;;5043523;28;19929;-73
2022/02/01 05:40:31;;;;;;;;;;;1.60;99.90;;;;;;5032535;28;20329;-72
2022/02/01 05:43:05;;;;;;;;;;;1.60;99.90;;;;;;5036104;28;20317;-73
2022/02/01 05:45:35;;;;;;;;;;;1.60;99.90;;;;;;5034553;28;19928;-70
2022/02/01 05:48:03;;;;;;;;;;;1.60;99.90;;;;;;5032600;28;19928;-72
2022/02/01 05:50:30;;;;;;;;;;;1.60;99.90;;;;;;5014170;28;20375;-73
2022/02/01 05:52:57;;;;;;;;;;;1.60;99.90;;;;;;5030318;28;20070;-72
2022/02/01 05:55:24;;;;;;;;;;;1.70;99.90;;;;;;5032772;28;19924;-72
2022/02/01 05:57:53;;;;;;;;;;;1.60;99.90;;;;;;5031929;28;20427;-71
2022/02/01 06:00:20;;;;;;;;;;;1.60;99.90;;;;;;5030925;28;19920;-72
2022/02/01 06:02:47;;;;;;;;;;;1.70;99.90;;;;;;5037308;28;19928;-75
2022/02/01 06:05:14;;;;;;;;;;;1.70;99.90;;;;;;5052271;28;19924;-70
2022/02/01 06:07:41;;;;;;;;;;;1.70;99.90;;;;;;5033798;28;20038;-73
2022/02/01 06:10:08;;;;;;;;;;;1.70;99.90;;;;;;5032124;28;20262;-71
2022/02/01 06:12:41;;;;;;;;;;;1.70;99.90;;;;;;5030843;28;19929;-72
2022/02/01 06:15:08;;;;;;;;;;;1.70;99.90;;;;;;5032770;28;20206;-71
2022/02/01 06:17:34;;;;;;;;;;;1.70;99.90;;;;;;5029946;28;19967;-73
2022/02/01 06:20:07;;;;;;;;;;;1.70;99.90;;;;;;5033411;28;20392;-71
2022/02/01 06:22:34;;;;;;;;;;;1.70;99.90;;;;;;5032999;28;19929;-72
2022/02/01 06:25:01;;;;;;;;;;;1.70;99.90;;;;;;5014778;28;19952;-72
2022/02/01 06:27:28;;;;;;;;;;;1.70;99.90;;;;;;5012281;28;19924;-73
2022/02/01 06:29:55;;;;;;;;;;;1.70;99.90;;;;;;5013408;28;20462;-73
2022/02/01 06:32:22;;;;;;;;;;;1.70;99.90;;;;;;5033055;28;20289;-73
2022/02/01 06:34:48;;;;;;;;;;;1.70;99.90;;;;;;5052758;28;20263;-73
2022/02/01 06:37:15;;;;;;;;;;;1.70;99.90;;;;;;5033259;28;19928;-72
2022/02/01 06:39:42;;;;;;;;;;;1.80;99.90;;;;;;5032561;28;19964;-73
2022/02/01 06:42:09;;;;;;;;;;;1.70;99.90;;;;;;5031761;28;19925;-72
2022/02/01 06:44:36;;;;;;;;;;;1.80;99.90;;;;;;5014379;28;19937;-72
2022/02/01 06:47:02;;;;;;;;;;;1.80;99.90;;;;;;5031506;28;20147;-74
2022/02/01 06:49:29;;;;;;;;;;;1.80;99.90;;;;;;5013711;28;19996;-74
2022/02/01 06:51:56;;;;;;;;;;;1.80;99.90;;;;;;5032428;28;19968;-70
2022/02/01 06:54:22;;;;;;;;;;;1.80;99.90;;;;;;5012895;28;19928;-73
2022/02/01 06:56:49;;;;;;;;;;;1.90;99.90;;;;;;5029738;28;20483;-72
2022/02/01 06:59:16;;;;;;;;;;;1.80;99.90;;;;;;5014234;28;20369;-73
2022/02/01 07:01:42;;;;;;;;;;;1.90;99.90;;;;;;5028636;28;20347;-73
2022/02/01 07:04:09;;;;;;;;;;;1.90;99.90;;;;;;5043586;28;20416;-72
2022/02/01 07:06:36;;;;;;;;;;;1.90;99.90;;;;;;5027876;28;20407;-71
2022/02/01 07:09:04;;;;;;;;;;;1.90;99.90;;;;;;5093479;22;19923;-74
2022/02/01 07:11:31;;;;;;;;;;;1.90;99.90;;;;;;5098176;28;19954;-75
2022/02/01 07:13:58;;;;;;;;;;;1.90;99.90;;;;;;5088256;27;20356;-75
2022/02/01 07:16:25;;;;;;;;;;;2.00;99.90;;;;;;5122241;27;20009;-75
2022/02/01 07:18:54;;;;;;;;;;;2.00;99.90;;;;;;5104016;27;19923;-74
2022/02/01 07:21:23;;;;;;;;;;;1.90;99.90;;;;;;5122135;27;20034;-75
2022/02/01 07:23:49;;;;;;;;;;;2.00;99.90;;;;;;5089366;28;20453;-75
2022/02/01 07:26:18;;;;;;;;;;;2.00;99.90;;;;;;5083068;28;19928;-75
2022/02/01 07:28:45;;;;;;;;;;;2.00;99.90;;;;;;5101444;28;20042;-74
2022/02/01 07:31:12;;;;;;;;;;;2.00;99.90;;;;;;5083603;28;19926;-75
2022/02/01 07:33:39;;;;;;;;;;;2.10;99.90;;;;;;5082602;28;19924;-74
2022/02/01 07:36:07;;;;;;;;;;;2.00;99.90;;;;;;5086930;28;19924;-75
2022/02/01 07:38:34;;;;;;;;;;;2.10;99.90;;;;;;5110480;27;19928;-75
2022/02/01 07:41:00;;;;;;;;;;;2.00;99.90;;;;;;5092461;28;19919;-75
2022/02/01 07:43:31;;;;;;;;;;;2.00;99.90;;;;;;5072856;28;20071;-75
2022/02/01 07:46:06;;;;;;;;;;;2.00;99.90;;;;;;5082104;28;19999;-74
2022/02/01 07:48:33;;;;;;;;;;;2.00;99.90;;;;;;5082358;28;19924;-74
2022/02/01 07:50:59;;;;;;;;;;;2.00;99.90;;;;;;5084825;28;20004;-75
2022/02/01 07:53:26;;;;;;;;;;;2.10;99.90;;;;;;5084330;28;19958;-75
2022/02/01 07:55:53;;;;;;;;;;;2.10;99.90;;;;;;5105584;27;20014;-73
2022/02/01 07:58:19;;;;;;;;;;;2.10;99.90;;;;;;5047466;28;20034;-74
2022/02/01 08:00:46;;;;;;;;;;;2.10;99.90;;;;;;5045424;28;20016;-73
2022/02/01 08:03:13;;;;;;;;;;;2.10;99.90;;;;;;5064232;28;20207;-74
2022/02/01 08:05:39;;;;;;;;;;;2.20;99.90;;;;;;5081606;28;19924;-74
2022/02/01 08:08:07;;;;;;;;;;;2.10;99.90;;;;;;5101393;28;19928;-74
2022/02/01 08:10:42;;;;;;;;;;;2.20;99.90;;;;;;5074632;28;19986;-74
2022/02/01 08:14:29;;;;;;;;;;;2.20;99.90;;;;;;5102801;28;19945;-74
2022/02/01 08:21:50;;;;;;;;;;;2.30;99.90;;;;;;5090187;28;19963;-74
2022/02/01 08:24:18;;;;;;;;;;;2.30;99.90;;;;;;5102757;28;19923;-74
2022/02/01 08:26:45;;;;;;;;;;;2.40;99.90;;;;;;5101290;28;20477;-74
2022/02/01 08:29:12;;;;;;;;;;;2.40;99.90;;;;;;5084319;28;20445;-74
2022/02/01 08:31:44;;;;;;;;;;;2.40;99.90;;;;;;5101889;28;20456;-74
2022/02/01 08:34:11;;;;;;;;;;;2.40;99.90;;;;;;5101948;28;19973;-75
2022/02/01 08:36:38;;;;;;;;;;;2.50;99.90;;;;;;5102597;28;20010;-74
2022/02/01 08:39:04;;;;;;;;;;;2.50;99.90;;;;;;5092173;28;19955;-74
2022/02/01 08:41:31;;;;;;;;;;;2.50;99.90;;;;;;5103733;28;20018;-74
2022/02/01 08:43:59;;;;;;;;;;;2.60;99.90;;;;;;5106505;28;19920;-74
2022/02/01 08:46:26;;;;;;;;;;;2.70;99.90;;;;;;5104895;28;20448;-73
2022/02/01 08:48:52;;;;;;;;;;;2.80;99.90;;;;;;5104905;28;19927;-74
2022/02/01 08:51:23;;;;;;;;;;;2.80;99.90;;;;;;5096873;27;20571;-74
2022/02/01 08:53:57;;;;;;;;;;;2.80;99.90;;;;;;5107180;27;20024;-74
2022/02/01 08:59:26;;;;;;;;;;;2.90;99.90;;;;;;5108198;27;19923;-74
2022/02/01 09:01:53;;;;;;;;;;;2.90;99.90;;;;;;5108033;27;20147;-74
2022/02/01 09:04:20;;;;;;;;;;;2.90;99.90;;;;;;5125985;27;20464;-74
2022/02/01 09:06:46;;;;;;;;;;;3.00;99.90;;;;;;5118215;27;20138;-74
2022/02/01 09:09:13;;;;;;;;;;;2.90;99.90;;;;;;5100364;27;20115;-74
2022/02/01 09:11:39;;;;;;;;;;;3.00;99.90;;;;;;5112512;27;20655;-75
2022/02/01 09:14:06;;;;;;;;;;;2.90;99.90;;;;;;5087107;28;20022;-74
2022/02/01 09:16:34;;;;;;;;;;;3.00;99.90;;;;;;5105195;28;20300;-74
2022/02/01 09:19:01;;;;;;;;;;;3.10;99.90;;;;;;5087498;28;20606;-75
2022/02/01 09:21:27;;;;;;;;;;;3.10;99.90;;;;;;5106301;28;19930;-74
2022/02/01 09:23:54;;;;;;;;;;;3.10;99.90;;;;;;5109134;27;19920;-74
2022/02/01 09:26:21;;;;;;;;;;;3.10;99.90;;;;;;5126022;27;19919;-74
2022/02/01 09:29:07;;;;;;;;;;;3.20;99.90;;;;;;5125795;27;19919;-74
2022/02/01 09:31:34;;;;;;;;;;;3.20;99.90;;;;;;5125446;27;19923;-74
2022/02/01 09:34:01;;;;;;;;;;;3.20;99.90;;;;;;5107981;27;19931;-74
2022/02/01 09:36:27;;;;;;;;;;;3.20;99.90;;;;;;5106980;27;20336;-75
2022/02/01 09:38:56;;;;;;;;;;;3.10;99.90;;;;;;5094858;28;20026;-75
2022/02/01 09:41:24;;;;;;;;;;;3.10;99.90;;;;;;5083056;28;20400;-75
2022/02/01 09:43:54;;;;;;;;;;;3.10;99.90;;;;;;5084160;28;19931;-74
2022/02/01 09:46:21;;;;;;;;;;;3.10;99.90;;;;;;5083764;28;19932;-74
2022/02/01 09:48:48;;;;;;;;;;;3.00;99.90;;;;;;5079277;28;19927;-75
2022/02/01 09:51:16;;;;;;;;;;;2.80;99.90;;;;;;5103435;28;20125;-75
2022/02/01 09:53:42;;;;;;;;;;;2.70;99.90;;;;;;5104776;28;20246;-75
2022/02/01 09:56:09;;;;;;;;;;;2.70;99.90;;;;;;5086447;28;19923;-74
2022/02/01 09:58:37;;;;;;;;;;;2.70;99.90;;;;;;5103146;28;20014;-74
2022/02/01 10:01:18;;;;;;;;;;;2.70;99.90;;;;;;5104814;28;19927;-75
2022/02/01 10:03:46;;;;;;;;;;;2.70;99.90;;;;;;5086135;28;19923;-74
2022/02/01 10:06:36;;;;;;;;;;;2.60;99.90;;;;;;5096344;28;20357;-75
2022/02/01 10:09:23;;;;;;;;;;;2.60;99.90;;;;;;5079168;28;19926;-75
2022/02/01 10:11:50;;;;;;;;;;;2.50;99.90;;;;;;5065855;28;19924;-75
2022/02/01 10:14:26;;;;;;;;;;;2.50;99.90;;;;;;5083424;28;20461;-74
2022/02/01 10:16:56;;;;;;;;;;;2.40;99.90;;;;;;5083780;28;20425;-75
2022/02/01 10:19:23;;;;;;;;;;;2.50;99.90;;;;;;5083359;28;19920;-75
2022/02/01 10:21:50;;;;;;;;;;;2.50;99.90;;;;;;5082791;28;19934;-74
2022/02/01 10:24:27;;;;;;;;;;;2.50;99.90;;;;;;5048104;28;19934;-75
2022/02/01 10:27:04;;;;;;;;;;;2.60;99.90;;;;;;5087104;28;20368;-75
2022/02/01 10:29:30;;;;;;;;;;;2.70;99.90;;;;;;5085476;28;20461;-75
2022/02/01 10:31:59;;;;;;;;;;;2.70;99.90;;;;;;5103203;28;19943;-75
2022/02/01 10:37:14;;;;;;;;;;;2.80;99.90;;;;;;5103036;28;20002;-75
2022/02/01 10:39:40;;;;;;;;;;;2.90;99.90;;;;;;5082264;28;20054;-75
2022/02/01 10:42:08;;;;;;;;;;;3.00;99.90;;;;;;5083370;28;20014;-74
2022/02/01 10:44:41;;;;;;;;;;;3.00;99.90;;;;;;5103400;28;19919;-74
2022/02/01 10:47:09;;;;;;;;;;;3.10;99.90;;;;;;5095832;28;19962;-74
2022/02/01 10:50:00;;;;;;;;;;;3.20;99.90;;;;;;5084117;28;19962;-75
2022/02/01 10:52:27;;;;;;;;;;;3.20;99.90;;;;;;5101800;28;19962;-74
2022/02/01 10:54:53;;;;;;;;;;;3.20;99.90;;;;;;5085355;28;19924;-75
2022/02/01 10:57:20;;;;;;;;;;;3.20;99.90;;;;;;5101215;28;20399;-73
2022/02/01 10:59:46;;;;;;;;;;;3.30;99.90;;;;;;5063731;28;19934;-73
2022/02/01 11:02:13;;;;;;;;;;;3.30;99.90;;;;;;5073366;28;19924;-73
2022/02/01 11:04:40;;;;;;;;;;;3.30;99.90;;;;;;5100077;28;19924;-74
2022/02/01 11:07:07;;;;;;;;;;;3.30;99.90;;;;;;5101592;28;19959;-73
2022/02/01 11:09:34;;;;;;;;;;;3.40;99.90;;;;;;5093707;28;20318;-73
2022/02/01 11:12:11;;;;;;;;;;;3.30;99.90;;;;;;5084109;28;20023;-73
2022/02/01 11:14:40;;;;;;;;;;;3.40;99.90;;;;;;5081961;28;20472;-74
2022/02/01 11:17:10;;;;;;;;;;;3.50;99.90;;;;;;5083338;28;20022;-74
2022/02/01 11:19:46;;;;;;;;;;;3.50;99.90;;;;;;5067723;28;20209;-74
2022/02/01 11:22:31;;;;;;;;;;;3.50;99.90;;;;;;5082206;28;20000;-73
2022/02/01 11:24:59;;;;;;;;;;;3.50;99.90;;;;;;5084898;28;19927;-74
2022/02/01 11:27:46;;;;;;;;;;;3.50;99.90;;;;;;5102808;28;19924;-75
2022/02/01 11:30:13;;;;;;;;;;;3.60;99.90;;;;;;5102054;28;19931;-75
2022/02/01 11:32:46;;;;;;;;;;;3.60;99.90;;;;;;5067975;28;20401;-74
2022/02/01 11:35:16;;;;;;;;;;;3.60;99.90;;;;;;5106897;27;20201;-75
2022/02/01 11:38:09;;;;;;;;;;;3.60;99.90;;;;;;5100829;28;20018;-75
2022/02/01 11:40:37;;;;;;;;;;;3.60;99.90;;;;;;5089597;27;19931;-75
2022/02/01 11:43:24;;;;;;;;;;;3.60;99.90;;;;;;5101780;28;20443;-75
2022/02/01 11:45:51;;;;;;;;;;;3.60;99.90;;;;;;5101918;28;20374;-75
2022/02/01 11:48:21;;;;;;;;;;;3.70;99.90;;;;;;5101582;28;19972;-75
2022/02/01 11:50:56;;;;;;;;;;;3.60;99.90;;;;;;5083775;28;20456;-76
2022/02/01 11:53:24;;;;;;;;;;;3.60;99.90;;;;;;5108978;27;20458;-75
2022/02/01 11:55:52;;;;;;;;;;;3.70;99.90;;;;;;5121761;27;19930;-76
2022/02/01 11:58:26;;;;;;;;;;;3.70;99.90;;;;;;5122288;27;19923;-75
2022/02/01 12:00:53;;;;;;;;;;;3.70;99.90;;;;;;5122225;28;20388;-76
2022/02/01 12:03:25;;;;;;;;;;;3.70;99.90;;;;;;5122844;28;19919;-76
2022/02/01 12:05:57;;;;;;;;;;;3.70;99.90;;;;;;5119162;28;20389;-75
2022/02/01 12:08:28;;;;;;;;;;;3.80;99.90;;;;;;5102726;28;20259;-76
2022/02/01 12:10:57;;;;;;;;;;;3.70;99.90;;;;;;5070951;28;20489;-76
2022/02/01 12:13:24;;;;;;;;;;;3.80;99.90;;;;;;5067566;28;19977;-75
2022/02/01 12:15:52;;;;;;;;;;;3.80;99.90;;;;;;5067518;28;20421;-76
2022/02/01 12:18:19;;;;;;;;;;;3.80;99.90;;;;;;5065990;28;19979;-76
2022/02/01 12:20:54;;;;;;;;;;;3.80;99.90;;;;;;5094405;28;20003;-76
2022/02/01 12:23:22;;;;;;;;;;;3.80;99.90;;;;;;5087379;28;19951;-75
2022/02/01 12:25:50;;;;;;;;;;;3.90;99.90;;;;;;5104670;28;20420;-73
2022/02/01 12:28:18;;;;;;;;;;;3.90;99.90;;;;;;5086205;28;20225;-74
2022/02/01 12:30:49;;;;;;;;;;;3.90;99.90;;;;;;5097305;28;19924;-74
2022/02/01 12:33:21;;;;;;;;;;;3.90;99.90;;;;;;5085374;28;19923;-73
2022/02/01 12:35:52;;;;;;;;;;;3.90;99.90;;;;;;5085458;28;20010;-74
2022/02/01 12:38:22;;;;;;;;;;;3.90;99.90;;;;;;5103650;28;19972;-74
2022/02/01 12:40:50;;;;;;;;;;;3.90;99.90;;;;;;5091933;28;20486;-74
2022/02/01 12:43:22;;;;;;;;;;;3.90;99.90;;;;;;5083945;28;19931;-74
2022/02/01 12:46:03;;;;;;;;;;;4.00;99.90;;;;;;5099605;28;20200;-74
2022/02/01 12:48:30;;;;;;;;;;;4.00;99.90;;;;;;5079077;28;19924;-74
2022/02/01 12:51:02;;;;;;;;;;;4.00;99.90;;;;;;5082882;28;19920;-74
2022/02/01 12:53:41;;;;;;;;;;;4.00;99.90;;;;;;5101216;28;19981;-74
2022/02/01 12:56:12;;;;;;;;;;;4.00;99.90;;;;;;5103615;28;20421;-74
2022/02/01 12:58:39;;;;;;;;;;;4.00;99.90;;;;;;5104208;28;20567;-74
2022/02/01 13:01:07;;;;;;;;;;;4.10;99.90;;;;;;5085671;28;20418;-74
2022/02/01 13:03:46;;;;;;;;;;;4.10;99.90;;;;;;5085903;28;19935;-73
2022/02/01 13:06:14;;;;;;;;;;;4.10;99.90;;;;;;5103188;28;19923;-74
2022/02/01 13:12:54;;;;;;;;;;;4.10;99.90;;;;;;5079400;22;20567;-84
2022/02/01 13:14:37;;;;;;;;;;;4.30;99.90;;;;;;5012563;28;19921;-84
2022/02/01 13:17:45;;;;;;;;;;;4.30;99.90;;;;;;5011575;28;19963;-84
2022/02/01 13:20:12;;;;;;;;;;;4.30;99.90;;;;;;5013512;28;19927;-84
2022/02/01 13:22:52;;;;;;;;;;;4.30;99.90;;;;;;4999230;28;20519;-83
2022/02/01 13:25:30;;;;;;;;;;;4.40;99.90;;;;;;5014070;28;19948;-84
2022/02/01 13:27:58;;;;;;;;;;;4.40;99.90;;;;;;5014047;28;19979;-84
2022/02/01 13:30:25;;;;;;;;;;;4.50;99.90;;;;;;4998586;28;19921;-85
2022/02/01 13:32:53;;;;;;;;;;;4.50;99.90;;;;;;5015183;28;20011;-84
2022/02/01 13:35:48;;;;;;;;;;;4.60;99.90;;;;;;5000844;28;19932;-82
2022/02/01 13:38:16;;;;;;;;;;;4.60;99.90;;;;;;5014414;28;19921;-84
2022/02/01 13:40:43;;;;;;;;;;;4.60;99.90;;;;;;5044946;28;19964;-82
2022/02/01 13:43:15;;;;;;;;;;;4.60;99.90;;;;;;5014482;28;19956;-83
2022/02/01 13:45:41;;;;;;;;;;;4.60;99.90;;;;;;4996291;28;19975;-85
2022/02/01 13:48:13;;;;;;;;;;;4.60;99.90;;;;;;4997386;28;19951;-83
2022/02/01 13:50:40;;;;;;;;;;;4.70;99.90;;;;;;4996477;28;19932;-83
2022/02/01 13:53:08;;;;;;;;;;;4.70;99.90;;;;;;5013136;28;19996;-84
2022/02/01 13:55:38;;;;;;;;;;;4.70;99.90;;;;;;5012078;28;20310;-82
2022/02/01 13:58:07;;;;;;;;;;;4.80;99.90;;;;;;5013589;28;19944;-84
2022/02/01 14:00:36;;;;;;;;;;;4.80;99.90;;;;;;5012210;28;19932;-84
2022/02/01 14:03:30;;;;;;;;;;;4.80;99.90;;;;;;5013475;28;19925;-84
2022/02/01 14:06:07;;;;;;;;;;;4.80;99.90;;;;;;5012906;28;20100;-84
2022/02/01 14:08:43;;;;;;;;;;;4.80;99.90;;;;;;5021071;28;19947;-84
2022/02/01 14:14:36;;;;;;;;;;;4.90;99.90;;;;;;5018752;28;19921;-86
2022/02/01 14:35:40;;;;;;;;;;;5.10;99.90;;;;;;5016641;28;19941;-86
2022/02/01 14:46:28;;;;;;;;;;;5.20;99.90;;;;;;5031460;28;19921;-86
2022/02/01 14:48:55;;;;;;;;;;;5.20;99.90;;;;;;4997168;28;19979;-84
2022/02/01 14:51:22;;;;;;;;;;;5.20;99.90;;;;;;5010623;28;19928;-83
2022/02/01 14:53:50;;;;;;;;;;;5.20;99.90;;;;;;5014693;28;19956;-86
2022/02/01 14:56:25;;;;;;;;;;;5.20;99.90;;;;;;5014309;28;19979;-86
2022/02/01 15:04:45;;;;;;;;;;;5.40;99.90;;;;;;5015983;28;19934;-86
2022/02/01 15:07:15;;;;;;;;;;;5.40;99.90;;;;;;5013835;28;19925;-87
2022/02/01 15:12:45;;;;;;;;;;;5.40;99.90;;;;;;4977007;28;19921;-85
2022/02/01 15:15:13;;;;;;;;;;;5.50;99.90;;;;;;5012086;28;19924;-85
2022/02/01 15:17:42;;;;;;;;;;;5.50;99.90;;;;;;5012221;28;19927;-86
2022/02/01 15:20:09;;;;;;;;;;;5.50;99.90;;;;;;5007183;28;20676;-87
2022/02/01 15:22:36;;;;;;;;;;;5.50;99.90;;;;;;5027506;28;19947;-85
2022/02/01 15:25:03;;;;;;;;;;;5.50;99.90;;;;;;5013230;28;19964;-86
2022/02/01 15:27:30;;;;;;;;;;;5.60;99.90;;;;;;4996337;28;20031;-87
2022/02/01 15:29:58;;;;;;;;;;;5.60;99.90;;;;;;5013565;28;19932;-86
2022/02/01 15:32:28;;;;;;;;;;;5.70;99.90;;;;;;4996084;28;19968;-86
2022/02/01 15:35:04;;;;;;;;;;;5.70;99.90;;;;;;5012155;28;19964;-86
2022/02/01 15:37:35;;;;;;;;;;;5.70;99.90;;;;;;4996228;28;19921;-87
2022/02/01 15:59:35;;;;;;;;;;;6.00;99.90;;;;;;5011118;28;19921;-85
2022/02/01 16:04:37;;;;;;;;;;;6.00;99.90;;;;;;5027753;28;20394;-85
2022/02/01 16:07:07;;;;;;;;;;;6.00;99.90;;;;;;5010616;28;19986;-85
2022/02/01 16:12:30;;;;;;;;;;;6.00;99.90;;;;;;5019104;28;19925;-87
2022/02/01 16:14:57;;;;;;;;;;;6.00;99.90;;;;;;5011738;28;19984;-87
2022/02/01 16:17:24;;;;;;;;;;;5.90;99.90;;;;;;5015780;28;19952;-88
2022/02/01 16:19:51;;;;;;;;;;;5.90;99.90;;;;;;4997975;28;19948;-88
2022/02/01 16:22:18;;;;;;;;;;;5.90;99.90;;;;;;4998027;28;20092;-87
2022/02/01 16:24:45;;;;;;;;;;;5.90;99.90;;;;;;5018170;28;19956;-88
2022/02/01 16:27:11;;;;;;;;;;;5.90;99.90;;;;;;5028262;23;20599;-75
2022/02/01 16:29:39;;;;;;;;;;;5.90;99.90;;;;;;5075552;28;19924;-76
2022/02/01 16:32:06;;;;;;;;;;;5.90;99.90;;;;;;5077406;28;20369;-76
2022/02/01 16:34:53;;;;;;;;;;;6.00;99.90;;;;;;5093033;28;20242;-76
2022/02/01 16:37:19;;;;;;;;;;;6.10;99.90;;;;;;5058146;28;19969;-76
2022/02/01 16:39:47;;;;;;;;;;;6.10;99.90;;;;;;5086931;28;19951;-76
2022/02/01 16:42:16;;;;;;;;;;;6.20;99.90;;;;;;5071348;28;20339;-76
2022/02/01 16:45:06;;;;;;;;;;;6.20;99.90;;;;;;5076362;28;20369;-76
2022/02/01 16:47:52;;;;;;;;;;;6.20;99.90;;;;;;5056805;28;19956;-75
2022/02/01 16:50:24;;;;;;;;;;;6.30;99.90;;;;;;5060618;28;19931;-78
2022/02/01 16:52:59;;;;;;;;;;;6.30;99.90;;;;;;5059181;28;19924;-76
2022/02/01 16:55:38;;;;;;;;;;;6.30;99.90;;;;;;5044656;28;19989;-77
2022/02/01 17:00:52;;;;;;;;;;;6.30;99.90;;;;;;5064329;28;20035;-76
2022/02/01 17:03:20;;;;;;;;;;;6.40;99.90;;;;;;5065142;28;19920;-77
2022/02/01 17:05:47;;;;;;;;;;;6.40;99.90;;;;;;5081762;28;20475;-76
2022/02/01 17:08:14;;;;;;;;;;;6.40;99.90;;;;;;5062621;28;20297;-78
2022/02/01 17:10:46;;;;;;;;;;;6.40;99.90;;;;;;5073329;28;19924;-77
2022/02/01 17:13:19;;;;;;;;;;;6.40;99.90;;;;;;5063756;28;19924;-76
2022/02/01 17:23:46;;;;;;;;;;;6.30;99.90;;;;;;5064967;28;20484;-75
2022/02/01 17:26:13;;;;;;;;;;;6.40;99.90;;;;;;5097935;28;20403;-74
2022/02/01 17:28:40;;;;;;;;;;;6.40;99.90;;;;;;5080377;28;19920;-75
2022/02/01 17:31:10;;;;;;;;;;;6.40;99.90;;;;;;5098275;28;20358;-75
2022/02/01 17:33:37;;;;;;;;;;;6.40;99.90;;;;;;5098036;28;20424;-74
2022/02/01 17:36:05;;;;;;;;;;;6.40;99.90;;;;;;5063719;28;19934;-74
2022/02/01 17:38:53;;;;;;;;;;;6.40;99.90;;;;;;5067561;28;19923;-75
2022/02/01 17:41:20;;;;;;;;;;;6.40;99.90;;;;;;5093080;28;19977;-75